sensor_id;sensor_type;location;lat;lon;timestamp;pressure;altitude;pressure_sealevel;temperature;humidity
51313;BME280;37397;53.226;10.400;2023-04-27T00:01:51;101457.56;;;7.49;55.08
51313;BME280;37397;53.226;10.400;2023-04-27T00:04:18;101460.03;;;7.47;55.03
51313;BME280;37397;53.226;10.400;2023-04-27T00:06:46;101462.97;;;7.44;55.03
51313;BME280;37397;53.226;10.400;2023-04-27T00:09:12;101458.97;;;7.41;55.10
51313;BME280;37397;53.226;10.400;2023-04-27T00:11:39;101459.88;;;7.38;55.07
51313;BME280;37397;53.226;10.400;2023-04-27T00:14:05;101458.25;;;7.37;54.97
51313;BME280;37397;53.226;10.400;2023-04-27T00:16:32;101455.84;;;7.36;55.11
51313;BME280;37397;53.226;10.400;2023-04-27T00:18:59;101458.34;;;7.34;54.97
51313;BME280;37397;53.226;10.400;2023-04-27T00:21:26;101451.16;;;7.29;55.14
51313;BME280;37397;53.226;10.400;2023-04-27T00:23:53;101445.94;;;7.27;55.09
51313;BME280;37397;53.226;10.400;2023-04-27T00:26:19;101451.25;;;7.25;55.26
51313;BME280;37397;53.226;10.400;2023-04-27T00:28:49;101448.41;;;7.25;55.14
51313;BME280;37397;53.226;10.400;2023-04-27T00:31:15;101450.91;;;7.23;55.25
51313;BME280;37397;53.226;10.400;2023-04-27T00:33:42;101447.72;;;7.21;55.09
51313;BME280;37397;53.226;10.400;2023-04-27T00:36:08;101450.63;;;7.18;55.23
51313;BME280;37397;53.226;10.400;2023-04-27T00:38:35;101447.00;;;7.17;55.05
51313;BME280;37397;53.226;10.400;2023-04-27T00:41:05;101446.66;;;7.15;55.24
51313;BME280;37397;53.226;10.400;2023-04-27T00:43:40;101450.38;;;7.12;55.26
51313;BME280;37397;53.226;10.400;2023-04-27T00:46:07;101444.34;;;7.10;55.26
51313;BME280;37397;53.226;10.400;2023-04-27T00:48:34;101441.13;;;7.08;55.07
51313;BME280;37397;53.226;10.400;2023-04-27T00:51:01;101446.00;;;7.07;55.31
51313;BME280;37397;53.226;10.400;2023-04-27T00:53:28;101440.44;;;7.04;55.39
51313;BME280;37397;53.226;10.400;2023-04-27T00:55:54;101441.31;;;7.01;55.38
51313;BME280;37397;53.226;10.400;2023-04-27T00:58:23;101445.38;;;7.00;55.29
51313;BME280;37397;53.226;10.400;2023-04-27T01:00:51;101441.03;;;6.95;55.29
51313;BME280;37397;53.226;10.400;2023-04-27T01:03:17;101454.31;;;6.98;55.42
51313;BME280;37397;53.226;10.400;2023-04-27T01:05:44;101443.06;;;6.94;55.14
51313;BME280;37397;53.226;10.400;2023-04-27T01:08:12;101451.59;;;6.94;55.50
51313;BME280;37397;53.226;10.400;2023-04-27T01:10:39;101446.44;;;6.89;55.29
51313;BME280;37397;53.226;10.400;2023-04-27T01:13:08;101455.28;;;6.91;55.43
51313;BME280;37397;53.226;10.400;2023-04-27T01:15:36;101448.88;;;6.87;55.46
51313;BME280;37397;53.226;10.400;2023-04-27T01:18:07;101451.38;;;6.85;55.35
51313;BME280;37397;53.226;10.400;2023-04-27T01:20:34;101454.22;;;6.85;55.57
51313;BME280;37397;53.226;10.400;2023-04-27T01:23:01;101459.53;;;6.83;55.28
51313;BME280;37397;53.226;10.400;2023-04-27T01:25:28;101464.03;;;6.81;55.49
51313;BME280;37397;53.226;10.400;2023-04-27T01:27:55;101467.31;;;6.79;55.43
51313;BME280;37397;53.226;10.400;2023-04-27T01:30:21;101469.38;;;6.79;55.40
51313;BME280;37397;53.226;10.400;2023-04-27T01:32:48;101473.50;;;6.74;55.47
51313;BME280;37397;53.226;10.400;2023-04-27T01:35:17;101473.50;;;6.74;55.22
51313;BME280;37397;53.226;10.400;2023-04-27T01:37:44;101477.22;;;6.71;55.29
51313;BME280;37397;53.226;10.400;2023-04-27T01:40:11;101466.75;;;6.68;55.38
51313;BME280;37397;53.226;10.400;2023-04-27T01:42:38;101472.41;;;6.68;55.54
51313;BME280;37397;53.226;10.400;2023-04-27T01:45:07;101472.50;;;6.64;55.27
51313;BME280;37397;53.226;10.400;2023-04-27T01:47:34;101478.63;;;6.63;55.36
51313;BME280;37397;53.226;10.400;2023-04-27T01:50:01;101475.44;;;6.61;55.30
51313;BME280;37397;53.226;10.400;2023-04-27T01:52:27;101477.91;;;6.59;55.51
51313;BME280;37397;53.226;10.400;2023-04-27T01:54:54;101481.97;;;6.57;55.75
51313;BME280;37397;53.226;10.400;2023-04-27T01:57:21;101484.06;;;6.53;55.26
51313;BME280;37397;53.226;10.400;2023-04-27T01:59:47;101483.72;;;6.51;55.22
51313;BME280;37397;53.226;10.400;2023-04-27T02:02:14;101496.66;;;6.52;55.61
51313;BME280;37397;53.226;10.400;2023-04-27T02:04:41;101495.50;;;6.50;55.63
51313;BME280;37397;53.226;10.400;2023-04-27T02:07:09;101493.53;;;6.47;55.46
51313;BME280;37397;53.226;10.400;2023-04-27T02:09:36;101502.47;;;6.45;55.46
51313;BME280;37397;53.226;10.400;2023-04-27T02:12:02;101507.78;;;6.43;55.44
51313;BME280;37397;53.226;10.400;2023-04-27T02:14:29;101504.22;;;6.39;55.46
51313;BME280;37397;53.226;10.400;2023-04-27T02:16:55;101504.22;;;6.39;55.46
51313;BME280;37397;53.226;10.400;2023-04-27T02:19:22;101515.19;;;6.37;55.82
51313;BME280;37397;53.226;10.400;2023-04-27T02:21:48;101508.38;;;6.34;55.53
51313;BME280;37397;53.226;10.400;2023-04-27T02:24:15;101518.09;;;6.33;55.79
51313;BME280;37397;53.226;10.400;2023-04-27T02:26:43;101521.38;;;6.32;55.80
51313;BME280;37397;53.226;10.400;2023-04-27T02:29:10;101523.84;;;6.30;55.59
51313;BME280;37397;53.226;10.400;2023-04-27T02:31:37;101512.13;;;6.28;55.75
51313;BME280;37397;53.226;10.400;2023-04-27T02:34:03;101513.81;;;6.25;55.95
51313;BME280;37397;53.226;10.400;2023-04-27T02:36:30;101522.31;;;6.25;55.73
51313;BME280;37397;53.226;10.400;2023-04-27T02:38:57;101519.91;;;6.24;55.94
51313;BME280;37397;53.226;10.400;2023-04-27T02:41:23;101517.94;;;6.20;56.00
51313;BME280;37397;53.226;10.400;2023-04-27T02:43:53;101514.31;;;6.20;56.05
51313;BME280;37397;53.226;10.400;2023-04-27T02:46:19;101519.25;;;6.16;55.92
51313;BME280;37397;53.226;10.400;2023-04-27T02:48:46;101514.38;;;6.16;55.71
51313;BME280;37397;53.226;10.400;2023-04-27T02:51:12;101516.84;;;6.14;56.05
51313;BME280;37397;53.226;10.400;2023-04-27T02:53:38;101512.03;;;6.11;55.71
51313;BME280;37397;53.226;10.400;2023-04-27T02:56:05;101511.25;;;6.11;56.04
51313;BME280;37397;53.226;10.400;2023-04-27T02:58:31;101518.56;;;6.08;56.16
51313;BME280;37397;53.226;10.400;2023-04-27T03:00:58;101515.38;;;6.06;55.81
51313;BME280;37397;53.226;10.400;2023-04-27T03:03:24;101515.81;;;6.05;55.92
51313;BME280;37397;53.226;10.400;2023-04-27T03:05:51;101511.44;;;6.00;55.95
51313;BME280;37397;53.226;10.400;2023-04-27T03:08:18;101520.28;;;6.02;56.22
51313;BME280;37397;53.226;10.400;2023-04-27T03:10:44;101518.72;;;6.01;56.08
51313;BME280;37397;53.226;10.400;2023-04-27T03:13:11;101517.09;;;6.00;56.07
51313;BME280;37397;53.226;10.400;2023-04-27T03:15:37;101513.13;;;5.94;56.08
51313;BME280;37397;53.226;10.400;2023-04-27T03:18:04;101510.72;;;5.92;55.94
51313;BME280;37397;53.226;10.400;2023-04-27T03:20:32;101526.47;;;5.97;56.02
51313;BME280;37397;53.226;10.400;2023-04-27T03:22:58;101524.47;;;5.94;56.50
51313;BME280;37397;53.226;10.400;2023-04-27T03:25:25;101522.88;;;5.93;56.09
51313;BME280;37397;53.226;10.400;2023-04-27T03:27:51;101522.91;;;5.89;56.51
51313;BME280;37397;53.226;10.400;2023-04-27T03:30:21;101528.16;;;5.91;56.14
51313;BME280;37397;53.226;10.400;2023-04-27T03:32:48;101520.53;;;5.88;56.24
51313;BME280;37397;53.226;10.400;2023-04-27T03:35:14;101524.59;;;5.87;56.27
51313;BME280;37397;53.226;10.400;2023-04-27T03:37:41;101521.41;;;5.84;56.38
51313;BME280;37397;53.226;10.400;2023-04-27T03:40:08;101521.41;;;5.84;56.56
51313;BME280;37397;53.226;10.400;2023-04-27T03:42:35;101521.44;;;5.81;56.55
51313;BME280;37397;53.226;10.400;2023-04-27T03:45:01;101531.13;;;5.83;56.54
51313;BME280;37397;53.226;10.400;2023-04-27T03:47:28;101521.88;;;5.79;56.65
51313;BME280;37397;53.226;10.400;2023-04-27T03:49:55;101525.13;;;5.78;56.53
51313;BME280;37397;53.226;10.400;2023-04-27T03:52:22;101526.81;;;5.75;56.80
51313;BME280;37397;53.226;10.400;2023-04-27T03:54:49;101537.28;;;5.78;56.52
51313;BME280;37397;53.226;10.400;2023-04-27T03:57:16;101538.16;;;5.75;56.66
51313;BME280;37397;53.226;10.400;2023-04-27T03:59:43;101545.03;;;5.74;56.73
51313;BME280;37397;53.226;10.400;2023-04-27T04:02:09;101539.34;;;5.74;56.47
51313;BME280;37397;53.226;10.400;2023-04-27T04:04:37;101548.28;;;5.73;56.74
51313;BME280;37397;53.226;10.400;2023-04-27T04:07:04;101545.03;;;5.74;56.91
51313;BME280;37397;53.226;10.400;2023-04-27T04:09:31;101544.31;;;5.70;56.74
51313;BME280;37397;53.226;10.400;2023-04-27T04:11:58;101546.72;;;5.72;56.53
51313;BME280;37397;53.226;10.400;2023-04-27T04:14:24;101543.91;;;5.68;56.85
51313;BME280;37397;53.226;10.400;2023-04-27T04:16:53;101542.31;;;5.67;56.48
51313;BME280;37397;53.226;10.400;2023-04-27T04:19:19;101550.81;;;5.67;56.75
51313;BME280;37397;53.226;10.400;2023-04-27T04:21:47;101539.16;;;5.61;56.69
51313;BME280;37397;53.226;10.400;2023-04-27T04:24:14;101554.50;;;5.64;56.75
51313;BME280;37397;53.226;10.400;2023-04-27T04:26:41;101550.56;;;5.58;56.64
51313;BME280;37397;53.226;10.400;2023-04-27T04:29:08;101554.16;;;5.62;56.88
51313;BME280;37397;53.226;10.400;2023-04-27T04:31:36;101566.25;;;5.62;56.92
51313;BME280;37397;53.226;10.400;2023-04-27T04:34:03;101565.06;;;5.60;56.71
51313;BME280;37397;53.226;10.400;2023-04-27T04:36:30;101557.44;;;5.57;56.71
51313;BME280;37397;53.226;10.400;2023-04-27T04:38:57;101555.84;;;5.56;56.83
51313;BME280;37397;53.226;10.400;2023-04-27T04:41:24;101560.25;;;5.57;56.93
51313;BME280;37397;53.226;10.400;2023-04-27T04:43:51;101555.84;;;5.56;56.86
51313;BME280;37397;53.226;10.400;2023-04-27T04:46:17;101564.34;;;5.56;56.82
51313;BME280;37397;53.226;10.400;2023-04-27T04:48:45;101561.13;;;5.54;56.87
51313;BME280;37397;53.226;10.400;2023-04-27T04:51:12;101564.78;;;5.54;57.16
51313;BME280;37397;53.226;10.400;2023-04-27T04:53:38;101570.88;;;5.53;57.13
51313;BME280;37397;53.226;10.400;2023-04-27T04:56:09;101566.06;;;5.50;56.87
51313;BME280;37397;53.226;10.400;2023-04-27T04:58:36;101570.50;;;5.51;57.10
51313;BME280;37397;53.226;10.400;2023-04-27T05:01:03;101576.16;;;5.51;56.91
51313;BME280;37397;53.226;10.400;2023-04-27T05:03:30;101571.72;;;5.50;57.34
51313;BME280;37397;53.226;10.400;2023-04-27T05:05:57;101582.63;;;5.51;57.03
51313;BME280;37397;53.226;10.400;2023-04-27T05:08:23;101575.34;;;5.50;57.16
51313;BME280;37397;53.226;10.400;2023-04-27T05:10:51;101573.75;;;5.49;57.19
51313;BME280;37397;53.226;10.400;2023-04-27T05:13:18;101574.19;;;5.47;57.29
51313;BME280;37397;53.226;10.400;2023-04-27T05:15:45;101573.69;;;5.53;57.35
51313;BME280;37397;53.226;10.400;2023-04-27T05:18:12;101580.22;;;5.50;57.60
51313;BME280;37397;53.226;10.400;2023-04-27T05:20:38;101578.09;;;5.54;57.24
51313;BME280;37397;53.226;10.400;2023-04-27T05:23:04;101581.34;;;5.56;57.75
51313;BME280;37397;53.226;10.400;2023-04-27T05:25:31;101580.09;;;5.57;57.55
51313;BME280;37397;53.226;10.400;2023-04-27T05:27:58;101584.97;;;5.56;57.75
51313;BME280;37397;53.226;10.400;2023-04-27T05:30:24;101581.69;;;5.58;57.84
51313;BME280;37397;53.226;10.400;2023-04-27T05:32:51;101582.88;;;5.60;58.09
51313;BME280;37397;53.226;10.400;2023-04-27T05:35:17;101593.31;;;5.63;57.81
51313;BME280;37397;53.226;10.400;2023-04-27T05:37:44;101590.91;;;5.65;57.79
51313;BME280;37397;53.226;10.400;2023-04-27T05:40:10;101582.34;;;5.69;58.16
51313;BME280;37397;53.226;10.400;2023-04-27T05:42:37;101589.53;;;5.74;57.99
51313;BME280;37397;53.226;10.400;2023-04-27T05:45:07;101589.84;;;5.79;57.76
51313;BME280;37397;53.226;10.400;2023-04-27T05:47:34;101584.56;;;5.81;57.89
51313;BME280;37397;53.226;10.400;2023-04-27T05:50:01;101590.53;;;5.87;57.94
51313;BME280;37397;53.226;10.400;2023-04-27T05:52:29;101587.63;;;5.91;57.90
51313;BME280;37397;53.226;10.400;2023-04-27T05:54:57;101597.69;;;5.95;58.28
51313;BME280;37397;53.226;10.400;2023-04-27T05:57:24;101602.09;;;6.00;58.33
51313;BME280;37397;53.226;10.400;2023-04-27T05:59:51;101593.16;;;6.01;58.24
51313;BME280;37397;53.226;10.400;2023-04-27T06:02:18;101593.91;;;6.06;58.11
51313;BME280;37397;53.226;10.400;2023-04-27T06:04:45;101592.25;;;6.08;58.13
51313;BME280;37397;53.226;10.400;2023-04-27T06:07:13;101605.13;;;6.13;57.83
51313;BME280;37397;53.226;10.400;2023-04-27T06:09:40;101608.28;;;6.18;58.05
51313;BME280;37397;53.226;10.400;2023-04-27T06:12:07;101596.53;;;6.16;58.12
51313;BME280;37397;53.226;10.400;2023-04-27T06:14:36;101602.09;;;6.24;57.95
51313;BME280;37397;53.226;10.400;2023-04-27T06:17:03;101605.28;;;6.26;57.90
51313;BME280;37397;53.226;10.400;2023-04-27T06:19:29;101611.31;;;6.28;58.18
51313;BME280;37397;53.226;10.400;2023-04-27T06:21:56;101607.28;;;6.29;58.12
51313;BME280;37397;53.226;10.400;2023-04-27T06:24:23;101615.69;;;6.32;57.93
51313;BME280;37397;53.226;10.400;2023-04-27T06:26:49;101620.09;;;6.37;57.87
51313;BME280;37397;53.226;10.400;2023-04-27T06:29:16;101611.94;;;6.39;58.16
51313;BME280;37397;53.226;10.400;2023-04-27T06:31:43;101609.50;;;6.41;58.25
51313;BME280;37397;53.226;10.400;2023-04-27T06:34:09;101614.28;;;6.44;58.00
51313;BME280;37397;53.226;10.400;2023-04-27T06:36:36;101615.09;;;6.45;58.16
51313;BME280;37397;53.226;10.400;2023-04-27T06:39:02;101615.00;;;6.48;58.12
51313;BME280;37397;53.226;10.400;2023-04-27T06:41:29;101612.53;;;6.50;57.97
51313;BME280;37397;53.226;10.400;2023-04-27T06:43:55;101616.56;;;6.53;58.49
51313;BME280;37397;53.226;10.400;2023-04-27T06:46:24;101608.84;;;6.53;58.38
51313;BME280;37397;53.226;10.400;2023-04-27T06:48:51;101610.81;;;6.56;58.15
51313;BME280;37397;53.226;10.400;2023-04-27T06:51:18;101610.38;;;6.58;58.16
51313;BME280;37397;53.226;10.400;2023-04-27T06:53:44;101604.28;;;6.60;58.21
51313;BME280;37397;53.226;10.400;2023-04-27T06:56:11;101618.81;;;6.62;58.40
51313;BME280;37397;53.226;10.400;2023-04-27T06:58:37;101618.31;;;6.67;58.36
51313;BME280;37397;53.226;10.400;2023-04-27T07:01:04;101617.06;;;6.68;58.50
51313;BME280;37397;53.226;10.400;2023-04-27T07:03:33;101614.63;;;6.70;58.39
51313;BME280;37397;53.226;10.400;2023-04-27T07:06:00;101610.53;;;6.71;58.32
51313;BME280;37397;53.226;10.400;2023-04-27T07:08:26;101616.50;;;6.77;58.44
51313;BME280;37397;53.226;10.400;2023-04-27T07:10:53;101617.66;;;6.79;58.53
51313;BME280;37397;53.226;10.400;2023-04-27T07:13:21;101610.84;;;6.77;58.51
51313;BME280;37397;53.226;10.400;2023-04-27T07:15:53;101618.41;;;6.83;58.37
51313;BME280;37397;53.226;10.400;2023-04-27T07:18:20;101620.03;;;6.84;58.43
51313;BME280;37397;53.226;10.400;2023-04-27T07:20:46;101619.50;;;6.89;58.42
51313;BME280;37397;53.226;10.400;2023-04-27T07:23:12;101620.66;;;6.92;58.41
51313;BME280;37397;53.226;10.400;2023-04-27T07:25:39;101621.47;;;6.92;58.61
51313;BME280;37397;53.226;10.400;2023-04-27T07:28:06;101626.72;;;6.94;58.50
51313;BME280;37397;53.226;10.400;2023-04-27T07:30:32;101634.72;;;6.99;58.84
51313;BME280;37397;53.226;10.400;2023-04-27T07:33:01;101637.47;;;7.03;58.69
51313;BME280;37397;53.226;10.400;2023-04-27T07:35:28;101643.16;;;7.03;59.06
51313;BME280;37397;53.226;10.400;2023-04-27T07:37:54;101639.78;;;7.08;59.01
51313;BME280;37397;53.226;10.400;2023-04-27T07:40:21;101645.03;;;7.09;58.94
51313;BME280;37397;53.226;10.400;2023-04-27T07:42:49;101642.53;;;7.11;59.11
51313;BME280;37397;53.226;10.400;2023-04-27T07:45:16;101657.41;;;7.19;58.84
51313;BME280;37397;53.226;10.400;2023-04-27T07:47:43;101658.22;;;7.20;59.08
51313;BME280;37397;53.226;10.400;2023-04-27T07:50:10;101642.69;;;7.24;58.88
51313;BME280;37397;53.226;10.400;2023-04-27T07:52:36;101651.16;;;7.28;58.62
51313;BME280;37397;53.226;10.400;2023-04-27T07:55:03;101650.28;;;7.31;58.76
51313;BME280;37397;53.226;10.400;2023-04-27T07:57:30;101638.47;;;7.33;58.66
51313;BME280;37397;53.226;10.400;2023-04-27T07:59:56;101652.06;;;7.41;58.70
51313;BME280;37397;53.226;10.400;2023-04-27T08:02:25;101648.78;;;7.43;58.42
51313;BME280;37397;53.226;10.400;2023-04-27T08:04:52;101640.63;;;7.45;58.61
51313;BME280;37397;53.226;10.400;2023-04-27T08:07:19;101641.38;;;7.49;58.60
51313;BME280;37397;53.226;10.400;2023-04-27T08:09:45;101633.09;;;7.55;58.40
51313;BME280;37397;53.226;10.400;2023-04-27T08:12:12;101633.94;;;7.55;58.46
51313;BME280;37397;53.226;10.400;2023-04-27T08:14:39;101633.84;;;7.59;58.61
51313;BME280;37397;53.226;10.400;2023-04-27T08:17:05;101642.63;;;7.64;58.11
51313;BME280;37397;53.226;10.400;2023-04-27T08:19:32;101640.50;;;7.69;58.38
51313;BME280;37397;53.226;10.400;2023-04-27T08:21:59;101648.94;;;7.72;58.34
51313;BME280;37397;53.226;10.400;2023-04-27T08:24:26;101648.84;;;7.76;58.10
51313;BME280;37397;53.226;10.400;2023-04-27T08:26:52;101639.09;;;7.77;58.16
51313;BME280;37397;53.226;10.400;2023-04-27T08:29:18;101647.09;;;7.82;57.93
51313;BME280;37397;53.226;10.400;2023-04-27T08:31:57;101646.22;;;7.85;58.03
51313;BME280;37397;53.226;10.400;2023-04-27T08:34:24;101649.78;;;7.89;57.70
51313;BME280;37397;53.226;10.400;2023-04-27T08:36:50;101653.31;;;7.93;57.79
51313;BME280;37397;53.226;10.400;2023-04-27T08:39:17;101643.91;;;7.96;57.68
51313;BME280;37397;53.226;10.400;2023-04-27T08:41:44;101628.47;;;7.97;57.75
51313;BME280;37397;53.226;10.400;2023-04-27T08:44:11;101639.31;;;8.02;57.78
51313;BME280;37397;53.226;10.400;2023-04-27T08:46:38;101626.25;;;8.05;57.51
51313;BME280;37397;53.226;10.400;2023-04-27T08:49:04;101631.84;;;8.09;57.38
51313;BME280;37397;53.226;10.400;2023-04-27T08:51:33;101633.38;;;8.13;57.22
51313;BME280;37397;53.226;10.400;2023-04-27T08:53:59;101627.56;;;8.17;57.24
51313;BME280;37397;53.226;10.400;2023-04-27T08:56:27;101615.75;;;8.18;57.15
51313;BME280;37397;53.226;10.400;2023-04-27T08:58:55;101628.19;;;8.25;57.01
51313;BME280;37397;53.226;10.400;2023-04-27T09:01:23;101633.44;;;8.26;56.82
51313;BME280;37397;53.226;10.400;2023-04-27T09:03:58;101622.41;;;8.28;56.76
51313;BME280;37397;53.226;10.400;2023-04-27T09:06:30;101628.81;;;8.32;56.67
51313;BME280;37397;53.226;10.400;2023-04-27T09:08:57;101627.91;;;8.35;56.41
51313;BME280;37397;53.226;10.400;2023-04-27T09:11:35;101624.72;;;8.33;56.11
51313;BME280;37397;53.226;10.400;2023-04-27T09:14:17;101627.00;;;8.38;56.03
51313;BME280;37397;53.226;10.400;2023-04-27T09:16:44;101625.00;;;8.39;56.20
51313;BME280;37397;53.226;10.400;2023-04-27T09:19:22;101629.41;;;8.40;55.52
51313;BME280;37397;53.226;10.400;2023-04-27T09:21:49;101626.88;;;8.46;55.64
51313;BME280;37397;53.226;10.400;2023-04-27T09:24:16;101620.38;;;8.45;55.13
51313;BME280;37397;53.226;10.400;2023-04-27T09:26:48;101623.94;;;8.49;55.03
51313;BME280;37397;53.226;10.400;2023-04-27T09:29:15;101623.47;;;8.51;55.15
51313;BME280;37397;53.226;10.400;2023-04-27T09:31:41;101618.59;;;8.51;54.93
51313;BME280;37397;53.226;10.400;2023-04-27T09:34:08;101622.59;;;8.54;54.77
51313;BME280;37397;53.226;10.400;2023-04-27T09:36:34;101613.50;;;8.59;54.70
51313;BME280;37397;53.226;10.400;2023-04-27T09:39:02;101604.97;;;8.59;54.32
51313;BME280;37397;53.226;10.400;2023-04-27T09:41:31;101614.22;;;8.63;54.52
51313;BME280;37397;53.226;10.400;2023-04-27T09:43:58;101616.63;;;8.65;54.36
51313;BME280;37397;53.226;10.400;2023-04-27T09:46:27;101618.09;;;8.69;54.57
51313;BME280;37397;53.226;10.400;2023-04-27T09:48:55;101611.88;;;8.74;54.77
51313;BME280;37397;53.226;10.400;2023-04-27T09:51:22;101609.03;;;8.74;54.68
51313;BME280;37397;53.226;10.400;2023-04-27T09:53:51;101606.88;;;8.79;54.82
51313;BME280;37397;53.226;10.400;2023-04-27T09:56:24;101614.50;;;8.82;54.95
51313;BME280;37397;53.226;10.400;2023-04-27T09:59:17;101603.13;;;8.82;54.87
51313;BME280;37397;53.226;10.400;2023-04-27T10:01:53;101606.41;;;8.80;55.13
51313;BME280;37397;53.226;10.400;2023-04-27T10:07:21;101611.81;;;8.91;55.17
51313;BME280;37397;53.226;10.400;2023-04-27T10:09:48;101605.22;;;8.94;54.81
51313;BME280;37397;53.226;10.400;2023-04-27T10:12:22;101607.50;;;8.99;54.53
51313;BME280;37397;53.226;10.400;2023-04-27T10:14:56;101599.75;;;9.00;54.60
51313;BME280;37397;53.226;10.400;2023-04-27T10:17:31;101598.06;;;9.02;54.78
51313;BME280;37397;53.226;10.400;2023-04-27T10:19:59;101604.81;;;9.08;54.93
51313;BME280;37397;53.226;10.400;2023-04-27T10:22:56;101602.28;;;9.10;54.66
51313;BME280;37397;53.226;10.400;2023-04-27T10:25:37;101602.19;;;9.14;54.61
51313;BME280;37397;53.226;10.400;2023-04-27T10:28:04;101598.78;;;9.19;54.54
51313;BME280;37397;53.226;10.400;2023-04-27T10:30:35;101610.06;;;9.23;54.65
51313;BME280;37397;53.226;10.400;2023-04-27T10:33:08;101600.63;;;9.26;54.47
51313;BME280;37397;53.226;10.400;2023-04-27T10:35:37;101608.72;;;9.27;54.13
51313;BME280;37397;53.226;10.400;2023-04-27T10:38:08;101607.34;;;9.32;53.78
51313;BME280;37397;53.226;10.400;2023-04-27T10:40:38;101608.50;;;9.35;53.98
51313;BME280;37397;53.226;10.400;2023-04-27T10:43:12;101612.03;;;9.39;53.90
51313;BME280;37397;53.226;10.400;2023-04-27T10:45:40;101610.31;;;9.41;53.72
51313;BME280;37397;53.226;10.400;2023-04-27T10:48:09;101605.78;;;9.44;53.34
51313;BME280;37397;53.226;10.400;2023-04-27T10:50:38;101601.19;;;9.46;53.53
51313;BME280;37397;53.226;10.400;2023-04-27T10:53:06;101609.66;;;9.50;53.59
51313;BME280;37397;53.226;10.400;2023-04-27T10:55:34;101600.28;;;9.49;53.35
51313;BME280;37397;53.226;10.400;2023-04-27T10:58:01;101607.94;;;9.53;52.84
51313;BME280;37397;53.226;10.400;2023-04-27T11:00:31;101601.66;;;9.58;52.95
51313;BME280;37397;53.226;10.400;2023-04-27T11:03:10;101607.72;;;9.60;52.94
51313;BME280;37397;53.226;10.400;2023-04-27T11:05:37;101604.88;;;9.60;52.93
51313;BME280;37397;53.226;10.400;2023-04-27T11:08:05;101599.38;;;9.65;53.10
51313;BME280;37397;53.226;10.400;2023-04-27T11:10:34;101603.72;;;9.70;53.19
51313;BME280;37397;53.226;10.400;2023-04-27T11:13:07;101588.31;;;9.67;53.41
51313;BME280;37397;53.226;10.400;2023-04-27T11:15:42;101599.97;;;9.73;53.60
51313;BME280;37397;53.226;10.400;2023-04-27T11:18:09;101610.13;;;9.74;53.51
51313;BME280;37397;53.226;10.400;2023-04-27T11:20:36;101602.56;;;9.80;53.07
51313;BME280;37397;53.226;10.400;2023-04-27T11:23:03;101602.56;;;9.80;52.83
51313;BME280;37397;53.226;10.400;2023-04-27T11:25:29;101603.25;;;9.84;52.37
51313;BME280;37397;53.226;10.400;2023-04-27T11:27:55;101583.31;;;9.84;52.48
51313;BME280;37397;53.226;10.400;2023-04-27T11:30:22;101587.75;;;9.85;52.78
51313;BME280;37397;53.226;10.400;2023-04-27T11:32:49;101585.56;;;9.90;52.90
51313;BME280;37397;53.226;10.400;2023-04-27T11:35:16;101590.69;;;9.95;52.96
51313;BME280;37397;53.226;10.400;2023-04-27T11:37:43;101597.09;;;9.99;52.92
51313;BME280;37397;53.226;10.400;2023-04-27T11:40:12;101599.03;;;10.02;52.98
51313;BME280;37397;53.226;10.400;2023-04-27T11:42:40;101596.84;;;10.06;52.97
51313;BME280;37397;53.226;10.400;2023-04-27T11:45:10;101595.13;;;10.09;52.98
51313;BME280;37397;53.226;10.400;2023-04-27T11:47:37;101590.91;;;10.13;52.94
51313;BME280;37397;53.226;10.400;2023-04-27T11:50:06;101586.13;;;10.10;53.10
51313;BME280;37397;53.226;10.400;2023-04-27T11:52:35;101598.88;;;10.18;52.65
51313;BME280;37397;53.226;10.400;2023-04-27T11:55:03;101595.09;;;10.21;52.14
51313;BME280;37397;53.226;10.400;2023-04-27T11:57:32;101591.34;;;10.25;52.25
51313;BME280;37397;53.226;10.400;2023-04-27T12:00:00;101596.91;;;10.28;51.99
51313;BME280;37397;53.226;10.400;2023-04-27T12:02:38;101589.50;;;10.31;51.77
51313;BME280;37397;53.226;10.400;2023-04-27T12:05:06;101600.81;;;10.34;51.62
51313;BME280;37397;53.226;10.400;2023-04-27T12:07:34;101598.19;;;10.40;51.47
51313;BME280;37397;53.226;10.400;2023-04-27T12:10:01;101600.09;;;10.43;51.74
51313;BME280;37397;53.226;10.400;2023-04-27T12:12:27;101602.03;;;10.46;51.80
51313;BME280;37397;53.226;10.400;2023-04-27T12:14:54;101603.63;;;10.47;51.83
51313;BME280;37397;53.226;10.400;2023-04-27T12:17:20;101605.56;;;10.50;51.78
51313;BME280;37397;53.226;10.400;2023-04-27T12:19:46;101601.31;;;10.55;51.67
51313;BME280;37397;53.226;10.400;2023-04-27T12:22:13;101598.00;;;10.56;51.64
51313;BME280;37397;53.226;10.400;2023-04-27T12:24:39;101600.72;;;10.60;51.80
51313;BME280;37397;53.226;10.400;2023-04-27T12:27:06;101602.34;;;10.61;51.93
51313;BME280;37397;53.226;10.400;2023-04-27T12:29:33;101600.59;;;10.64;52.00
51313;BME280;37397;53.226;10.400;2023-04-27T12:32:00;101590.78;;;10.65;51.53
51313;BME280;37397;53.226;10.400;2023-04-27T12:34:26;101600.91;;;10.66;51.44
51313;BME280;37397;53.226;10.400;2023-04-27T12:36:56;101594.63;;;10.71;51.04
51313;BME280;37397;53.226;10.400;2023-04-27T12:39:22;101602.28;;;10.74;50.72
51313;BME280;37397;53.226;10.400;2023-04-27T12:41:52;101596.22;;;10.72;50.49
51313;BME280;37397;53.226;10.400;2023-04-27T12:44:19;101583.41;;;10.76;50.40
51313;BME280;37397;53.226;10.400;2023-04-27T12:46:47;101587.72;;;10.81;50.44
51313;BME280;37397;53.226;10.400;2023-04-27T12:49:15;101588.41;;;10.85;50.94
51313;BME280;37397;53.226;10.400;2023-04-27T12:51:42;101598.53;;;10.86;50.52
51313;BME280;37397;53.226;10.400;2023-04-27T12:54:09;101594.75;;;10.89;50.60